createdAt,value
2023-02-16T00:01:46.119Z,20.10
2023-02-16T00:04:23.235Z,19.65
2023-02-16T00:06:50.380Z,18.85
2023-02-16T00:09:17.910Z,20.63
2023-02-16T00:12:03.774Z,19.92
2023-02-16T00:14:30.390Z,17.77
2023-02-16T00:16:58.602Z,18.17
2023-02-16T00:19:40.428Z,17.70
2023-02-16T00:22:08.104Z,17.50
2023-02-16T00:24:35.108Z,16.95
2023-02-16T00:27:01.851Z,17.45
2023-02-16T00:29:29.993Z,17.65
2023-02-16T00:31:58.675Z,19.15
2023-02-16T00:34:36.972Z,18.00
2023-02-16T00:37:09.275Z,19.20
2023-02-16T00:39:36.920Z,19.48
2023-02-16T00:42:06.431Z,21.42
2023-02-16T00:44:33.000Z,19.33
2023-02-16T00:47:35.425Z,19.27
2023-02-16T00:50:01.930Z,18.40
2023-02-16T00:52:37.182Z,20.20
2023-02-16T00:55:07.736Z,19.30
2023-02-16T00:57:38.890Z,19.52
2023-02-16T01:00:30.218Z,18.58
2023-02-16T01:03:00.676Z,19.73
2023-02-16T01:05:27.248Z,20.90
2023-02-16T01:08:12.087Z,20.30
2023-02-16T01:10:57.913Z,19.02
2023-02-16T01:13:27.832Z,18.60
2023-02-16T01:15:54.706Z,19.40
2023-02-16T01:18:22.056Z,20.13
2023-02-16T01:20:48.692Z,21.30
2023-02-16T01:23:15.263Z,20.20
2023-02-16T01:25:42.150Z,18.65
2023-02-16T01:28:21.532Z,19.63
2023-02-16T01:30:49.518Z,20.77
2023-02-16T01:33:16.193Z,19.02
2023-02-16T01:35:42.802Z,21.08
2023-02-16T01:38:18.739Z,20.27
2023-02-16T01:40:55.264Z,20.73
2023-02-16T01:43:26.632Z,20.85
2023-02-16T01:46:18.293Z,21.10
2023-02-16T01:48:44.772Z,21.52
2023-02-16T01:51:34.908Z,20.30
2023-02-16T01:54:27.601Z,19.60
2023-02-16T01:57:05.988Z,21.50
2023-02-16T02:00:00.405Z,20.00
2023-02-16T02:02:34.737Z,20.02
2023-02-16T02:05:35.878Z,19.95
2023-02-16T02:08:21.741Z,21.02
2023-02-16T02:11:03.590Z,21.27
2023-02-16T02:13:41.074Z,20.98
2023-02-16T02:16:08.675Z,20.13
2023-02-16T02:18:35.206Z,21.23
2023-02-16T02:21:26.250Z,19.30
2023-02-16T02:24:10.891Z,20.88
2023-02-16T02:27:04.792Z,19.08
2023-02-16T02:29:56.142Z,21.33
2023-02-16T02:32:30.342Z,19.67
2023-02-16T02:35:12.099Z,19.77
2023-02-16T02:38:01.150Z,17.90
2023-02-16T02:40:37.358Z,19.52
2023-02-16T02:43:17.723Z,20.05
2023-02-16T02:45:49.688Z,19.58
2023-02-16T02:48:16.203Z,20.40
2023-02-16T02:51:17.169Z,20.42
2023-02-16T02:54:13.390Z,20.10
2023-02-16T02:57:04.064Z,19.50
2023-02-16T02:59:51.890Z,20.30
2023-02-16T03:02:21.607Z,18.58
2023-02-16T03:04:48.938Z,19.67
2023-02-16T03:07:16.931Z,21.08
2023-02-16T03:09:44.522Z,20.00
2023-02-16T03:12:31.929Z,19.40
2023-02-16T03:15:01.471Z,20.67
2023-02-16T03:17:53.788Z,19.17
2023-02-16T03:20:39.133Z,19.55
2023-02-16T03:23:26.302Z,17.27
2023-02-16T03:26:11.716Z,18.10
2023-02-16T03:29:01.146Z,19.20
2023-02-16T03:31:35.158Z,18.88
2023-02-16T03:34:02.760Z,20.75
2023-02-16T03:36:33.247Z,18.83
2023-02-16T03:39:00.584Z,19.92
2023-02-16T03:41:32.778Z,20.83
2023-02-16T03:43:59.341Z,19.73
2023-02-16T03:46:25.989Z,20.33
2023-02-16T03:48:52.484Z,19.73
2023-02-16T03:51:19.022Z,20.60
2023-02-16T03:53:45.496Z,19.83
2023-02-16T03:56:12.028Z,20.45
2023-02-16T03:58:38.671Z,20.85
2023-02-16T04:01:05.681Z,20.15
2023-02-16T04:03:32.333Z,20.50
2023-02-16T04:05:58.785Z,21.55
2023-02-16T04:08:25.356Z,21.17
2023-02-16T04:10:51.844Z,20.33
2023-02-16T04:13:18.319Z,20.63
2023-02-16T04:15:44.827Z,21.67
2023-02-16T04:18:11.385Z,20.52
2023-02-16T04:20:37.953Z,19.27
2023-02-16T04:23:04.764Z,21.35
2023-02-16T04:25:31.584Z,19.92
2023-02-16T04:27:58.265Z,20.15
2023-02-16T04:30:28.293Z,21.27
2023-02-16T04:32:55.227Z,18.92
2023-02-16T04:35:22.580Z,20.15
2023-02-16T04:37:49.100Z,20.05
2023-02-16T04:40:17.908Z,20.88
2023-02-16T04:42:45.041Z,20.50
2023-02-16T04:45:12.686Z,21.25
2023-02-16T04:47:39.448Z,21.13
2023-02-16T04:50:06.814Z,21.40
2023-02-16T04:52:34.355Z,20.23
2023-02-16T04:55:00.922Z,19.25
2023-02-16T04:57:27.797Z,19.98
2023-02-16T04:59:54.382Z,19.42
2023-02-16T05:02:20.847Z,20.10
2023-02-16T05:04:47.427Z,18.95
2023-02-16T05:07:13.969Z,20.00
2023-02-16T05:09:40.556Z,19.02
2023-02-16T05:12:25.856Z,19.33
2023-02-16T05:14:52.392Z,17.23
2023-02-16T05:17:25.468Z,16.75
2023-02-16T05:19:54.970Z,17.52
2023-02-16T05:22:21.771Z,17.58
2023-02-16T05:24:48.396Z,16.83
2023-02-16T05:27:21.879Z,18.90
2023-02-16T05:32:15.704Z,19.63
2023-02-16T05:34:44.405Z,19.85
2023-02-16T05:37:11.682Z,19.90
2023-02-16T05:39:38.293Z,20.30
2023-02-16T05:42:05.025Z,20.95
2023-02-16T05:44:31.722Z,22.15
2023-02-16T05:46:58.310Z,20.90
2023-02-16T05:49:25.484Z,21.45
2023-02-16T05:51:52.207Z,20.75
2023-02-16T05:54:18.653Z,21.20
2023-02-16T05:56:47.170Z,21.40
2023-02-16T05:59:15.009Z,21.27
2023-02-16T06:01:41.897Z,20.67
2023-02-16T06:04:10.206Z,21.75
2023-02-16T06:06:38.059Z,21.73
2023-02-16T06:09:07.076Z,23.42
2023-02-16T06:11:36.399Z,22.45
2023-02-16T06:14:11.666Z,22.05
2023-02-16T06:16:40.706Z,22.92
2023-02-16T06:19:07.625Z,21.45
2023-02-16T06:21:35.711Z,22.38
2023-02-16T06:24:02.368Z,21.52
2023-02-16T06:26:29.203Z,21.65
2023-02-16T06:28:56.074Z,20.45
2023-02-16T06:31:23.718Z,19.45
2023-02-16T06:33:50.625Z,19.73
2023-02-16T06:36:17.857Z,21.45
2023-02-16T06:38:45.525Z,20.85
2023-02-16T06:41:12.460Z,21.13
2023-02-16T06:43:39.066Z,21.55
2023-02-16T06:46:05.556Z,20.10
2023-02-16T06:48:32.050Z,21.80
2023-02-16T06:50:58.592Z,20.33
2023-02-16T06:53:25.495Z,22.50
2023-02-16T06:55:52.210Z,21.30
2023-02-16T06:58:18.900Z,20.48
2023-02-16T07:00:45.447Z,20.38
2023-02-16T07:03:12.156Z,20.98
2023-02-16T07:05:38.727Z,21.58
2023-02-16T07:08:05.326Z,20.88
2023-02-16T07:10:47.470Z,19.65
2023-02-16T07:13:16.244Z,21.05
2023-02-16T07:15:42.756Z,20.73
2023-02-16T07:18:09.454Z,20.55
2023-02-16T07:20:36.000Z,19.85
2023-02-16T07:23:02.452Z,20.42
2023-02-16T07:25:29.011Z,21.05
2023-02-16T07:27:55.462Z,21.67
2023-02-16T07:30:22.534Z,20.38
2023-02-16T07:32:49.390Z,21.63
2023-02-16T07:35:15.938Z,21.38
2023-02-16T07:37:42.432Z,20.35
2023-02-16T07:40:09.461Z,19.77
2023-02-16T07:42:36.067Z,20.80
2023-02-16T07:45:02.628Z,21.20
2023-02-16T07:47:29.137Z,20.48
2023-02-16T07:49:55.584Z,19.10
2023-02-16T07:52:22.209Z,19.15
2023-02-16T07:54:48.724Z,19.30
2023-02-16T07:57:15.250Z,17.35
2023-02-16T07:59:42.168Z,18.17
2023-02-16T08:02:15.963Z,19.23
2023-02-16T08:04:43.690Z,19.83
2023-02-16T08:07:12.977Z,20.95
2023-02-16T08:09:40.723Z,19.48
2023-02-16T08:12:15.449Z,19.92
2023-02-16T08:14:42.284Z,20.90
2023-02-16T08:17:09.545Z,19.23
2023-02-16T08:19:37.330Z,20.05
2023-02-16T08:22:04.861Z,20.92
2023-02-16T08:24:31.450Z,19.33
2023-02-16T08:26:57.921Z,21.27
2023-02-16T08:29:24.488Z,18.23
2023-02-16T08:31:52.172Z,19.50
2023-02-16T08:34:20.410Z,18.60
2023-02-16T08:36:52.960Z,17.27
2023-02-16T08:39:21.580Z,18.20
2023-02-16T08:41:49.793Z,17.45
2023-02-16T08:44:18.049Z,16.85
2023-02-16T08:46:47.539Z,17.50
2023-02-16T08:49:17.443Z,17.13
2023-02-16T08:51:47.175Z,16.77
2023-02-16T08:54:29.951Z,16.85
2023-02-16T08:56:58.966Z,16.85
2023-02-16T08:59:28.432Z,17.17
2023-02-16T09:01:56.133Z,16.02
2023-02-16T09:04:24.441Z,15.20
2023-02-16T09:06:52.328Z,17.58
2023-02-16T09:09:19.852Z,15.75
2023-02-16T09:11:46.847Z,16.80
2023-02-16T09:14:13.621Z,15.90
2023-02-16T09:16:45.424Z,15.57
2023-02-16T09:19:14.891Z,15.90
2023-02-16T09:21:42.100Z,15.32
2023-02-16T09:24:09.120Z,16.13
2023-02-16T09:26:38.541Z,15.68
2023-02-16T09:29:07.086Z,15.25
2023-02-16T09:31:37.191Z,15.10
2023-02-16T09:34:14.140Z,15.30
2023-02-16T09:36:40.697Z,15.27
2023-02-16T09:39:08.134Z,14.95
2023-02-16T09:41:40.726Z,15.95
2023-02-16T09:44:19.172Z,16.20
2023-02-16T09:46:47.046Z,16.27
2023-02-16T09:49:25.156Z,14.63
2023-02-16T09:52:19.491Z,14.88
2023-02-16T09:54:53.227Z,15.35
2023-02-16T09:57:58.379Z,14.50
2023-02-16T10:00:29.989Z,14.95
2023-02-16T10:03:05.551Z,15.82
2023-02-16T10:05:51.912Z,15.45
2023-02-16T10:08:27.533Z,14.65
2023-02-16T10:11:40.250Z,13.95
2023-02-16T10:14:46.892Z,13.73
2023-02-16T10:17:32.321Z,15.68
2023-02-16T10:20:07.450Z,16.58
2023-02-16T10:22:40.687Z,14.40
2023-02-16T10:27:46.992Z,16.48
2023-02-16T10:30:19.596Z,15.07
2023-02-16T10:32:54.713Z,16.58
2023-02-16T10:35:41.087Z,15.13
2023-02-16T10:38:18.210Z,15.27
2023-02-16T10:41:22.089Z,16.10
2023-02-16T10:44:01.599Z,16.70
2023-02-16T10:46:36.800Z,16.67
2023-02-16T10:49:03.422Z,16.05
2023-02-16T10:51:37.636Z,15.43
2023-02-16T10:54:08.829Z,16.48
2023-02-16T10:56:44.167Z,15.55
2023-02-16T10:59:22.890Z,14.82
2023-02-16T11:01:54.729Z,16.55
2023-02-16T11:04:35.692Z,15.88
2023-02-16T11:07:11.698Z,16.30
2023-02-16T11:09:40.765Z,15.02
2023-02-16T11:12:35.302Z,14.65
2023-02-16T11:15:04.736Z,16.92
2023-02-16T11:17:47.146Z,14.77
2023-02-16T11:20:34.290Z,16.45
2023-02-16T11:23:13.050Z,15.55
2023-02-16T11:25:40.027Z,16.23
2023-02-16T11:28:06.991Z,15.80
2023-02-16T11:30:36.189Z,15.07
2023-02-16T11:33:05.562Z,14.57
2023-02-16T11:35:40.983Z,14.75
2023-02-16T11:38:28.015Z,12.85
2023-02-16T11:40:56.088Z,13.80
2023-02-16T11:43:28.361Z,13.70
2023-02-16T11:46:17.684Z,12.83
2023-02-16T11:48:45.617Z,14.32
2023-02-16T11:51:15.300Z,12.90
2023-02-16T11:53:43.628Z,13.85
2023-02-16T11:56:23.462Z,12.55
2023-02-16T11:59:22.427Z,12.45
2023-02-16T12:02:00.560Z,11.32
2023-02-16T12:04:57.826Z,11.30
2023-02-16T12:07:46.902Z,11.23
2023-02-16T12:10:20.914Z,11.23
2023-02-16T12:13:18.375Z,9.75
2023-02-16T12:16:05.182Z,10.73
2023-02-16T12:18:45.346Z,10.32
2023-02-16T12:21:32.927Z,9.68
2023-02-16T12:24:17.937Z,9.55
2023-02-16T12:26:52.058Z,9.60
2023-02-16T12:29:45.890Z,8.90
2023-02-16T12:32:30.137Z,9.35
2023-02-16T12:35:21.822Z,8.18
2023-02-16T12:37:54.255Z,7.88
2023-02-16T12:40:26.645Z,8.65
2023-02-16T12:42:53.142Z,7.85
2023-02-16T12:45:23.822Z,7.70
2023-02-16T12:47:57.780Z,8.32
2023-02-16T12:50:31.117Z,8.10
2023-02-16T12:53:03.338Z,8.73
2023-02-16T12:55:29.779Z,7.83
2023-02-16T12:58:14.935Z,8.15
2023-02-16T13:00:48.636Z,9.00
2023-02-16T13:03:41.456Z,8.50
2023-02-16T13:06:08.330Z,9.65
2023-02-16T13:09:16.356Z,8.15
2023-02-16T13:11:42.848Z,7.68
2023-02-16T13:14:18.587Z,7.85
2023-02-16T13:16:51.086Z,7.88
2023-02-16T13:19:18.508Z,6.40
2023-02-16T13:21:51.921Z,6.13
2023-02-16T13:24:24.619Z,7.28
2023-02-16T13:26:54.128Z,8.23
2023-02-16T13:30:04.374Z,7.78
2023-02-16T13:32:45.869Z,8.05
2023-02-16T13:35:31.096Z,6.38
2023-02-16T13:38:04.052Z,7.05
2023-02-16T13:40:52.174Z,7.03
2023-02-16T13:43:34.792Z,7.00
2023-02-16T13:46:08.359Z,7.22
2023-02-16T13:48:53.513Z,7.80
2023-02-16T13:51:23.328Z,6.90
2023-02-16T13:53:59.329Z,6.93
2023-02-16T13:56:29.415Z,6.40
2023-02-16T13:58:58.068Z,6.55
2023-02-16T14:01:42.953Z,6.22
2023-02-16T14:04:32.289Z,7.40
2023-02-16T14:07:07.966Z,6.72
2023-02-16T14:09:37.416Z,6.55
2023-02-16T14:12:14.240Z,7.10
2023-02-16T14:14:56.576Z,6.95
2023-02-16T14:17:27.463Z,7.40
2023-02-16T14:20:05.016Z,7.00
2023-02-16T14:22:45.652Z,7.47
2023-02-16T14:25:22.220Z,6.57
2023-02-16T14:28:03.782Z,7.03
2023-02-16T14:30:57.180Z,6.45
2023-02-16T14:33:45.369Z,6.43
2023-02-16T14:36:16.877Z,6.40
2023-02-16T14:38:51.882Z,7.30
2023-02-16T14:41:29.272Z,5.70
2023-02-16T14:44:25.702Z,5.88
2023-02-16T14:47:03.919Z,6.28
2023-02-16T14:50:06.927Z,6.10
2023-02-16T14:53:12.544Z,5.97
2023-02-16T14:56:01.413Z,6.47
2023-02-16T14:58:41.387Z,5.65
2023-02-16T15:01:14.056Z,6.07
2023-02-16T15:03:42.155Z,5.72
2023-02-16T15:06:18.697Z,5.57
2023-02-16T15:08:58.529Z,4.90
2023-02-16T15:11:56.690Z,5.13
2023-02-16T15:14:25.694Z,4.95
2023-02-16T15:16:53.935Z,5.07
2023-02-16T15:19:28.461Z,4.68
2023-02-16T15:22:19.005Z,4.65
2023-02-16T15:25:07.937Z,4.15
2023-02-16T15:27:34.384Z,3.60
2023-02-16T15:30:21.626Z,3.33
2023-02-16T15:33:14.108Z,3.75
2023-02-16T15:35:43.304Z,3.30
2023-02-16T15:38:31.858Z,3.10
2023-02-16T15:41:02.115Z,2.72
2023-02-16T15:43:36.030Z,2.65
2023-02-16T15:46:04.903Z,2.67
2023-02-16T15:48:33.635Z,2.65
2023-02-16T15:51:20.958Z,2.80
2023-02-16T15:54:19.766Z,2.47
2023-02-16T15:56:48.561Z,2.92
2023-02-16T15:59:39.507Z,3.53
2023-02-16T16:02:24.703Z,3.10
2023-02-16T16:04:57.465Z,2.95
2023-02-16T16:07:31.584Z,3.50
2023-02-16T16:10:00.194Z,3.17
2023-02-16T16:12:28.195Z,3.42
2023-02-16T16:15:00.510Z,2.95
2023-02-16T16:17:30.347Z,2.83
2023-02-16T16:20:35.913Z,2.70
2023-02-16T16:23:04.540Z,2.70
2023-02-16T16:25:34.111Z,3.15
2023-02-16T16:28:01.944Z,3.80
2023-02-16T16:30:32.391Z,4.43
2023-02-16T16:33:11.927Z,4.25
2023-02-16T16:35:44.506Z,4.18
2023-02-16T16:38:29.252Z,4.55
2023-02-16T16:40:58.516Z,5.20
2023-02-16T16:43:34.855Z,5.50
2023-02-16T16:46:07.561Z,5.72
2023-02-16T16:48:36.431Z,7.35
2023-02-16T16:51:11.950Z,6.88
2023-02-16T16:53:51.575Z,6.68
2023-02-16T16:56:18.765Z,6.97
2023-02-16T16:58:50.614Z,6.82
2023-02-16T17:01:18.327Z,6.03
2023-02-16T17:03:44.956Z,6.10
2023-02-16T17:06:11.901Z,6.50
2023-02-16T17:08:38.424Z,6.10
2023-02-16T17:11:05.264Z,6.07
2023-02-16T17:13:31.775Z,5.78
2023-02-16T17:16:07.036Z,6.53
2023-02-16T17:18:34.531Z,6.65
2023-02-16T17:21:01.056Z,6.10
2023-02-16T17:23:27.597Z,7.03
2023-02-16T17:25:54.077Z,5.63
2023-02-16T17:28:21.153Z,5.88
2023-02-16T17:30:47.995Z,6.30
2023-02-16T17:33:14.580Z,5.32
2023-02-16T17:35:43.505Z,6.25
2023-02-16T17:38:17.980Z,6.20
2023-02-16T17:40:47.940Z,5.55
2023-02-16T17:43:16.023Z,6.25
2023-02-16T17:45:42.934Z,6.93
2023-02-16T17:48:20.994Z,6.68
2023-02-16T17:50:49.263Z,6.63
2023-02-16T17:53:17.194Z,6.85
2023-02-16T17:55:45.060Z,7.30
2023-02-16T17:58:11.940Z,7.82
2023-02-16T18:00:39.096Z,7.93
2023-02-16T18:03:06.063Z,8.35
2023-02-16T18:05:32.997Z,8.00
2023-02-16T18:07:59.548Z,8.55
2023-02-16T18:10:42.324Z,7.70
2023-02-16T18:13:11.596Z,8.43
2023-02-16T18:15:40.091Z,8.52
2023-02-16T18:18:07.938Z,6.25
2023-02-16T18:20:34.922Z,6.07
2023-02-16T18:23:01.430Z,6.07
2023-02-16T18:25:28.082Z,6.55
2023-02-16T18:27:54.552Z,6.25
2023-02-16T18:30:21.366Z,6.47
2023-02-16T18:32:47.843Z,6.65
2023-02-16T18:35:17.140Z,6.22
2023-02-16T18:37:45.305Z,6.65
2023-02-16T18:40:15.459Z,6.05
2023-02-16T18:42:42.293Z,6.38
2023-02-16T18:45:09.219Z,6.53
2023-02-16T18:47:36.547Z,6.10
2023-02-16T18:50:04.722Z,6.07
2023-02-16T18:52:31.261Z,6.85
2023-02-16T18:54:57.744Z,6.43
2023-02-16T18:57:24.309Z,6.07
2023-02-16T18:59:53.725Z,7.47
2023-02-16T19:02:20.220Z,6.13
2023-02-16T19:04:46.784Z,5.45
2023-02-16T19:07:13.340Z,6.20
2023-02-16T19:09:39.909Z,5.85
2023-02-16T19:12:06.555Z,5.80
2023-02-16T19:14:33.161Z,6.07
2023-02-16T19:16:59.766Z,6.18
2023-02-16T19:19:26.262Z,6.15
2023-02-16T19:21:52.742Z,6.60
2023-02-16T19:24:19.300Z,7.97
2023-02-16T19:26:45.795Z,6.72
2023-02-16T19:29:12.843Z,6.97
2023-02-16T19:31:39.527Z,7.18
2023-02-16T19:34:06.214Z,7.75
2023-02-16T19:36:34.137Z,7.25
2023-02-16T19:39:02.203Z,6.68
2023-02-16T19:41:31.898Z,7.32
2023-02-16T19:43:58.460Z,7.00
2023-02-16T19:46:26.200Z,7.13
2023-02-16T19:48:55.306Z,6.82
2023-02-16T19:51:22.143Z,6.43
2023-02-16T19:53:49.232Z,5.97
2023-02-16T19:56:19.044Z,6.72
2023-02-16T19:58:46.052Z,6.85
2023-02-16T20:01:17.837Z,6.45
2023-02-16T20:03:44.976Z,6.75
2023-02-16T20:06:21.249Z,6.03
2023-02-16T20:08:49.715Z,6.15
2023-02-16T20:11:19.046Z,7.45
2023-02-16T20:13:46.387Z,6.82
2023-02-16T20:16:13.412Z,7.47
2023-02-16T20:18:40.457Z,7.10
2023-02-16T20:21:19.042Z,7.60
2023-02-16T20:23:47.546Z,7.45
2023-02-16T20:26:21.208Z,8.02
2023-02-16T20:28:49.149Z,6.80
2023-02-16T20:31:22.403Z,7.18
2023-02-16T20:33:49.590Z,7.25
2023-02-16T20:36:16.895Z,8.02
2023-02-16T20:38:44.106Z,7.50
2023-02-16T20:41:11.052Z,7.70
2023-02-16T20:43:38.148Z,7.15
2023-02-16T20:46:06.323Z,7.32
2023-02-16T20:48:34.201Z,8.23
2023-02-16T20:51:03.706Z,7.18
2023-02-16T20:53:30.498Z,7.07
2023-02-16T20:56:08.286Z,8.07
2023-02-16T20:58:36.757Z,8.02
2023-02-16T21:01:10.080Z,8.95
2023-02-16T21:06:03.901Z,8.45
2023-02-16T21:08:30.587Z,8.32
2023-02-16T21:10:57.093Z,8.23
2023-02-16T21:13:23.634Z,8.27
2023-02-16T21:15:50.216Z,8.63
2023-02-16T21:18:16.861Z,8.63
2023-02-16T21:20:43.950Z,8.80
2023-02-16T21:23:10.572Z,10.05
2023-02-16T21:25:38.107Z,9.05
2023-02-16T21:28:04.653Z,9.43
2023-02-16T21:30:31.363Z,8.70
2023-02-16T21:32:57.900Z,9.40
2023-02-16T21:35:24.395Z,9.10
2023-02-16T21:37:50.846Z,9.02
2023-02-16T21:40:36.101Z,9.20
2023-02-16T21:43:02.717Z,9.27
2023-02-16T21:45:29.225Z,8.93
2023-02-16T21:48:14.189Z,8.60
2023-02-16T21:50:41.522Z,8.80
2023-02-16T21:53:09.136Z,9.25
2023-02-16T21:55:55.510Z,8.10
2023-02-16T21:58:24.527Z,8.82
2023-02-16T22:00:51.908Z,8.05
2023-02-16T22:03:19.098Z,8.13
2023-02-16T22:05:45.743Z,9.38
2023-02-16T22:08:14.440Z,8.43
2023-02-16T22:10:41.229Z,8.82
2023-02-16T22:13:07.835Z,9.20
2023-02-16T22:15:38.123Z,8.82
2023-02-16T22:18:05.922Z,8.90
2023-02-16T22:20:32.906Z,8.75
2023-02-16T22:22:59.368Z,9.02
2023-02-16T22:25:26.007Z,9.30
2023-02-16T22:27:52.602Z,8.55
2023-02-16T22:30:19.402Z,8.90
2023-02-16T22:32:45.937Z,9.18
2023-02-16T22:35:12.783Z,9.73
2023-02-16T22:37:39.301Z,9.15
2023-02-16T22:40:06.508Z,9.40
2023-02-16T22:42:33.026Z,9.95
2023-02-16T22:44:59.466Z,8.77
2023-02-16T22:47:25.991Z,9.82
2023-02-16T22:49:52.427Z,8.85
2023-02-16T22:52:18.939Z,7.60
2023-02-16T22:54:45.466Z,8.43
2023-02-16T22:57:12.001Z,8.60
2023-02-16T22:59:38.516Z,8.20
2023-02-16T23:02:05.012Z,8.95
2023-02-16T23:04:31.537Z,8.30
2023-02-16T23:06:58.094Z,8.38
2023-02-16T23:09:24.607Z,9.85
2023-02-16T23:11:51.452Z,8.95
2023-02-16T23:14:19.442Z,7.63
2023-02-16T23:16:49.415Z,8.23
2023-02-16T23:19:19.519Z,8.10
2023-02-16T23:21:47.874Z,8.68
2023-02-16T23:24:17.340Z,8.15
2023-02-16T23:26:43.893Z,8.52
2023-02-16T23:29:11.124Z,8.30
2023-02-16T23:31:39.468Z,8.73
2023-02-16T23:34:07.524Z,9.18
2023-02-16T23:36:36.209Z,8.65
2023-02-16T23:39:05.026Z,9.20
2023-02-16T23:41:31.546Z,8.90
2023-02-16T23:44:00.655Z,9.10
2023-02-16T23:46:27.745Z,8.55
2023-02-16T23:48:54.364Z,8.80
2023-02-16T23:51:20.823Z,8.35
2023-02-16T23:53:47.412Z,8.75
2023-02-16T23:56:20.703Z,8.90
2023-02-16T23:58:48.321Z,8.45
